createdAt,value
2022-12-22T00:00:06.577Z,55.26
2022-12-22T00:02:58.244Z,55.37
2022-12-22T00:05:44.359Z,55.11
2022-12-22T00:08:30.310Z,55.27
2022-12-22T00:11:16.144Z,55.23
2022-12-22T00:14:02.852Z,55.64
2022-12-22T00:16:53.944Z,55.49
2022-12-22T00:19:39.166Z,55.12
2022-12-22T00:22:44.701Z,55.64
2022-12-22T00:25:34.975Z,55.54
2022-12-22T00:28:22.529Z,55.57
2022-12-22T00:31:07.851Z,55.18
2022-12-22T00:33:53.429Z,55.27
2022-12-22T00:36:40.015Z,55.18
2022-12-22T00:39:31.042Z,55.62
2022-12-22T00:42:16.406Z,55.51
2022-12-22T00:45:01.820Z,55.47
2022-12-22T00:47:48.159Z,55.71
2022-12-22T00:50:33.930Z,55.41
2022-12-22T00:53:19.256Z,55.57
2022-12-22T00:56:04.506Z,55.69
2022-12-22T00:58:49.798Z,55.17
2022-12-22T01:01:35.110Z,55.60
2022-12-22T01:04:20.764Z,55.32
2022-12-22T01:07:06.146Z,55.52
2022-12-22T01:09:51.328Z,55.22
2022-12-22T01:12:40.349Z,55.67
2022-12-22T01:15:34.996Z,55.75
2022-12-22T01:18:20.390Z,55.70
2022-12-22T01:21:05.665Z,55.36
2022-12-22T01:23:52.202Z,55.21
2022-12-22T01:26:38.537Z,55.13
2022-12-22T01:29:23.804Z,55.57
2022-12-22T01:32:09.189Z,55.13
2022-12-22T01:34:54.788Z,55.25
2022-12-22T01:37:40.405Z,54.98
2022-12-22T01:40:31.815Z,55.44
2022-12-22T01:43:17.103Z,55.37
2022-12-22T01:46:02.426Z,55.51
2022-12-22T01:48:49.781Z,55.27
2022-12-22T01:51:43.860Z,55.29
2022-12-22T01:54:30.783Z,55.33
2022-12-22T01:57:16.581Z,55.31
2022-12-22T02:00:02.524Z,55.31
2022-12-22T02:02:57.333Z,55.03
2022-12-22T02:05:43.092Z,55.46
2022-12-22T02:08:51.816Z,55.29
2022-12-22T02:11:41.420Z,55.30
2022-12-22T02:14:42.174Z,55.07
2022-12-22T02:17:27.406Z,55.28
2022-12-22T02:20:21.411Z,55.13
2022-12-22T02:23:09.832Z,55.19
2022-12-22T02:26:01.454Z,55.05
2022-12-22T02:28:46.842Z,55.36
2022-12-22T02:31:32.321Z,55.21
2022-12-22T02:34:23.092Z,55.23
2022-12-22T02:37:23.082Z,55.44
2022-12-22T02:40:16.338Z,55.40
2022-12-22T02:43:16.939Z,55.13
2022-12-22T02:46:20.171Z,55.38
2022-12-22T02:49:16.414Z,55.31
2022-12-22T02:52:09.795Z,55.33
2022-12-22T02:54:55.248Z,54.95
2022-12-22T02:57:40.515Z,55.31
2022-12-22T03:00:26.395Z,55.17
2022-12-22T03:03:11.878Z,55.32
2022-12-22T03:05:57.673Z,55.10
2022-12-22T03:08:43.036Z,55.40
2022-12-22T03:11:28.468Z,55.09
2022-12-22T03:14:13.814Z,55.06
2022-12-22T03:16:59.126Z,55.05
2022-12-22T03:19:44.492Z,55.36
2022-12-22T03:22:29.862Z,54.99
2022-12-22T03:25:15.056Z,55.51
2022-12-22T03:27:41.805Z,55.00
2022-12-22T03:30:08.968Z,55.38
2022-12-22T03:32:35.732Z,55.17
2022-12-22T03:35:02.464Z,55.13
2022-12-22T03:37:29.243Z,55.27
2022-12-22T03:39:55.882Z,55.05
2022-12-22T03:42:41.141Z,55.11
2022-12-22T03:45:28.563Z,55.11
2022-12-22T03:47:55.302Z,55.33
2022-12-22T03:50:21.987Z,55.40
2022-12-22T03:52:48.814Z,55.12
2022-12-22T03:55:15.651Z,54.99
2022-12-22T03:57:42.386Z,55.18
2022-12-22T04:00:09.417Z,55.36
2022-12-22T04:02:39.643Z,55.22
2022-12-22T04:05:06.920Z,54.77
2022-12-22T04:07:33.617Z,54.83
2022-12-22T04:10:19.029Z,54.78
2022-12-22T04:12:54.607Z,54.90
2022-12-22T04:15:28.800Z,54.97
2022-12-22T04:17:56.052Z,55.23
2022-12-22T04:20:26.797Z,55.27
2022-12-22T04:22:54.902Z,55.17
2022-12-22T04:25:21.836Z,54.89
2022-12-22T04:27:58.648Z,54.79
2022-12-22T04:30:26.692Z,55.07
2022-12-22T04:32:53.331Z,54.86
2022-12-22T04:35:20.076Z,55.07
2022-12-22T04:37:46.748Z,55.10
2022-12-22T04:40:13.635Z,54.76
2022-12-22T04:42:40.364Z,54.92
2022-12-22T04:45:07.795Z,54.68
2022-12-22T04:47:34.584Z,54.86
2022-12-22T04:50:01.383Z,54.67
2022-12-22T04:52:28.419Z,55.02
2022-12-22T04:54:55.152Z,54.87
2022-12-22T04:57:21.958Z,54.82
2022-12-22T04:59:48.848Z,54.51
2022-12-22T05:02:15.653Z,54.60
2022-12-22T05:04:42.467Z,54.97
2022-12-22T05:07:09.460Z,54.54
2022-12-22T05:09:36.207Z,54.87
2022-12-22T05:12:23.074Z,54.48
2022-12-22T05:14:49.905Z,54.50
2022-12-22T05:17:16.564Z,54.92
2022-12-22T05:19:43.307Z,54.49
2022-12-22T05:22:09.970Z,54.88
2022-12-22T05:24:36.828Z,54.77
2022-12-22T05:27:03.654Z,54.88
2022-12-22T05:29:30.355Z,54.60
2022-12-22T05:31:57.062Z,54.46
2022-12-22T05:34:23.860Z,54.92
2022-12-22T05:36:50.540Z,54.82
2022-12-22T05:39:17.443Z,54.63
2022-12-22T05:41:44.106Z,54.40
2022-12-22T05:44:10.937Z,54.84
2022-12-22T05:46:37.623Z,54.40
2022-12-22T05:49:04.510Z,54.29
2022-12-22T05:51:31.147Z,54.39
2022-12-22T05:53:57.909Z,54.33
2022-12-22T05:56:24.623Z,54.59
2022-12-22T05:58:51.338Z,54.70
2022-12-22T06:01:17.996Z,54.58
2022-12-22T06:03:44.801Z,54.42
2022-12-22T06:06:11.636Z,54.60
2022-12-22T06:08:38.345Z,54.60
2022-12-22T06:11:05.155Z,54.49
2022-12-22T06:13:31.895Z,54.52
2022-12-22T06:15:58.618Z,54.59
2022-12-22T06:18:25.492Z,54.59
2022-12-22T06:20:53.487Z,54.26
2022-12-22T06:23:23.111Z,54.53
2022-12-22T06:25:58.004Z,54.30
2022-12-22T06:28:25.282Z,54.52
2022-12-22T06:30:52.072Z,54.61
2022-12-22T06:33:19.016Z,54.26
2022-12-22T06:35:45.769Z,54.15
2022-12-22T06:38:12.623Z,54.41
2022-12-22T06:40:39.414Z,54.15
2022-12-22T06:43:10.072Z,54.29
2022-12-22T06:45:41.236Z,53.95
2022-12-22T06:48:09.488Z,54.07
2022-12-22T06:50:36.326Z,53.74
2022-12-22T06:53:03.640Z,53.67
2022-12-22T06:55:30.631Z,53.92
2022-12-22T06:57:57.265Z,54.95
2022-12-22T07:00:25.074Z,54.79
2022-12-22T07:02:51.943Z,55.53
2022-12-22T07:05:18.831Z,55.76
2022-12-22T07:07:47.314Z,55.67
2022-12-22T07:10:14.075Z,55.69
2022-12-22T07:12:40.765Z,55.72
2022-12-22T07:15:08.891Z,56.10
2022-12-22T07:17:35.814Z,56.08
2022-12-22T07:20:02.771Z,56.18
2022-12-22T07:22:31.011Z,56.26
2022-12-22T07:24:58.549Z,56.25
2022-12-22T07:27:26.869Z,56.35
2022-12-22T07:29:56.658Z,56.42
2022-12-22T07:32:24.068Z,56.55
2022-12-22T07:34:50.995Z,56.88
2022-12-22T07:37:20.763Z,56.59
2022-12-22T07:39:47.535Z,56.46
2022-12-22T07:42:32.768Z,56.58
2022-12-22T07:45:03.063Z,56.64
2022-12-22T07:47:35.190Z,56.97
2022-12-22T07:50:21.720Z,57.17
2022-12-22T07:52:48.675Z,56.99
2022-12-22T07:55:15.581Z,57.09
2022-12-22T07:57:42.379Z,57.17
2022-12-22T08:00:10.917Z,57.00
2022-12-22T08:02:40.791Z,57.57
2022-12-22T08:05:08.706Z,57.30
2022-12-22T08:07:35.714Z,57.60
2022-12-22T08:10:02.627Z,58.09
2022-12-22T08:12:29.914Z,57.86
2022-12-22T08:14:57.154Z,57.38
2022-12-22T08:17:24.357Z,57.61
2022-12-22T08:19:51.035Z,57.80
2022-12-22T08:22:17.871Z,57.82
2022-12-22T08:24:44.468Z,57.85
2022-12-22T08:27:14.460Z,57.68
2022-12-22T08:29:47.312Z,57.71
2022-12-22T08:32:14.428Z,57.37
2022-12-22T08:34:42.230Z,57.73
2022-12-22T08:37:12.615Z,57.98
2022-12-22T08:39:40.671Z,58.23
2022-12-22T08:42:09.676Z,58.48
2022-12-22T08:44:39.098Z,58.19
2022-12-22T08:47:13.049Z,58.56
2022-12-22T08:49:46.363Z,58.26
2022-12-22T08:52:18.621Z,58.03
2022-12-22T08:54:45.760Z,58.41
2022-12-22T08:57:17.587Z,58.11
2022-12-22T08:59:45.864Z,58.15
2022-12-22T09:02:17.980Z,58.30
2022-12-22T09:04:45.865Z,58.35
2022-12-22T09:07:12.565Z,58.44
2022-12-22T09:09:39.307Z,58.47
2022-12-22T09:12:06.520Z,58.27
2022-12-22T09:14:33.711Z,58.22
2022-12-22T09:17:00.537Z,58.70
2022-12-22T09:19:27.551Z,58.62
2022-12-22T09:21:54.877Z,58.97
2022-12-22T09:24:21.848Z,59.04
2022-12-22T09:26:49.424Z,58.84
2022-12-22T09:29:16.901Z,59.00
2022-12-22T09:31:44.340Z,58.79
2022-12-22T09:34:17.112Z,59.18
2022-12-22T09:36:44.996Z,58.84
2022-12-22T09:39:12.078Z,58.36
2022-12-22T09:41:46.255Z,58.74
2022-12-22T09:44:21.377Z,58.35
2022-12-22T09:46:49.159Z,58.83
2022-12-22T09:49:17.273Z,58.80
2022-12-22T09:51:51.401Z,58.40
2022-12-22T09:54:18.403Z,58.41
2022-12-22T09:56:50.002Z,58.75
2022-12-22T09:59:19.981Z,58.54
2022-12-22T10:02:08.445Z,58.39
2022-12-22T10:04:40.881Z,58.29
2022-12-22T10:07:35.578Z,58.59
2022-12-22T10:10:26.806Z,58.07
2022-12-22T10:12:59.567Z,58.09
2022-12-22T10:15:45.322Z,58.33
2022-12-22T10:18:18.396Z,58.13
2022-12-22T10:21:06.509Z,58.07
2022-12-22T10:23:35.492Z,58.10
2022-12-22T10:26:31.876Z,57.99
2022-12-22T10:29:03.911Z,58.32
2022-12-22T10:31:33.141Z,58.30
2022-12-22T10:34:15.574Z,58.32
2022-12-22T10:36:48.012Z,58.73
2022-12-22T10:39:21.815Z,58.56
2022-12-22T10:41:50.137Z,58.31
2022-12-22T10:44:16.763Z,58.36
2022-12-22T10:46:49.535Z,58.51
2022-12-22T10:49:21.617Z,58.86
2022-12-22T10:52:11.035Z,58.41
2022-12-22T10:54:38.275Z,58.56
2022-12-22T10:57:25.507Z,58.76
2022-12-22T10:59:55.117Z,58.58
2022-12-22T11:02:22.644Z,58.53
2022-12-22T11:04:50.857Z,58.79
2022-12-22T11:07:18.211Z,58.89
2022-12-22T11:09:45.184Z,58.61
2022-12-22T11:12:38.694Z,58.95
2022-12-22T11:15:26.220Z,58.59
2022-12-22T11:18:21.872Z,58.69
2022-12-22T11:20:51.513Z,59.06
2022-12-22T11:23:34.359Z,58.70
2022-12-22T11:26:24.783Z,58.90
2022-12-22T11:29:16.431Z,59.06
2022-12-22T11:31:43.313Z,58.78
2022-12-22T11:34:27.645Z,58.63
2022-12-22T11:36:54.408Z,58.52
2022-12-22T11:39:32.955Z,58.70
2022-12-22T11:42:26.764Z,58.34
2022-12-22T11:45:29.248Z,58.42
2022-12-22T11:48:07.880Z,58.14
2022-12-22T11:51:01.788Z,58.10
2022-12-22T11:53:49.123Z,58.30
2022-12-22T11:56:23.040Z,57.97
2022-12-22T11:59:08.118Z,57.99
2022-12-22T12:01:54.283Z,57.76
2022-12-22T12:04:24.111Z,58.01
2022-12-22T12:07:13.453Z,58.09
2022-12-22T12:09:48.944Z,58.00
2022-12-22T12:12:35.918Z,58.14
2022-12-22T12:15:16.431Z,57.90
2022-12-22T12:17:49.108Z,58.13
2022-12-22T12:20:18.424Z,58.06
2022-12-22T12:22:57.494Z,58.07
2022-12-22T12:25:44.969Z,58.37
2022-12-22T12:28:50.688Z,58.45
2022-12-22T12:31:25.988Z,58.11
2022-12-22T12:33:55.705Z,58.06
2022-12-22T12:36:44.336Z,58.33
2022-12-22T12:39:20.133Z,58.44
2022-12-22T12:42:11.347Z,58.34
2022-12-22T12:44:38.730Z,58.57
2022-12-22T12:47:26.813Z,58.44
2022-12-22T12:50:13.999Z,58.25
2022-12-22T12:52:40.784Z,58.54
2022-12-22T12:55:33.047Z,58.73
2022-12-22T12:58:02.353Z,58.97
2022-12-22T13:00:34.982Z,58.88
2022-12-22T13:03:25.259Z,58.87
2022-12-22T13:06:01.843Z,58.49
2022-12-22T13:08:30.220Z,58.47
2022-12-22T13:10:56.992Z,58.67
2022-12-22T13:13:23.827Z,58.61
2022-12-22T13:16:10.818Z,58.92
2022-12-22T13:18:49.936Z,58.92
2022-12-22T13:24:25.916Z,58.83
2022-12-22T13:26:56.790Z,59.00
2022-12-22T13:29:36.720Z,59.06
2022-12-22T13:32:36.310Z,58.99
2022-12-22T13:35:30.957Z,59.14
2022-12-22T13:37:59.128Z,58.55
2022-12-22T13:40:40.425Z,59.21
2022-12-22T13:43:15.614Z,59.34
2022-12-22T13:45:44.753Z,59.33
2022-12-22T13:48:20.255Z,59.35
2022-12-22T13:51:01.811Z,59.24
2022-12-22T13:56:43.543Z,58.70
2022-12-22T13:59:22.805Z,58.94
2022-12-22T14:02:00.743Z,59.31
2022-12-22T14:04:28.965Z,58.96
2022-12-22T14:06:57.577Z,59.12
2022-12-22T14:09:26.551Z,59.36
2022-12-22T14:11:58.329Z,58.63
2022-12-22T14:14:40.243Z,59.01
2022-12-22T14:17:34.172Z,59.25
2022-12-22T14:20:09.092Z,58.88
2022-12-22T14:22:45.937Z,58.93
2022-12-22T14:25:17.812Z,58.60
2022-12-22T14:27:48.098Z,58.74
2022-12-22T14:30:23.819Z,59.16
2022-12-22T14:32:55.886Z,58.84
2022-12-22T14:35:23.135Z,58.73
2022-12-22T14:37:55.101Z,58.43
2022-12-22T14:40:30.195Z,58.69
2022-12-22T14:42:58.081Z,58.96
2022-12-22T14:45:25.146Z,58.95
2022-12-22T14:47:53.940Z,59.42
2022-12-22T14:50:25.360Z,59.21
2022-12-22T14:52:57.018Z,59.06
2022-12-22T14:55:33.243Z,59.12
2022-12-22T14:58:04.820Z,59.11
2022-12-22T15:00:34.873Z,59.24
2022-12-22T15:03:05.540Z,59.13
2022-12-22T15:05:33.403Z,59.22
2022-12-22T15:08:06.161Z,59.06
2022-12-22T15:10:38.374Z,59.17
2022-12-22T15:13:07.835Z,58.68
2022-12-22T15:15:34.695Z,58.90
2022-12-22T15:18:01.604Z,59.29
2022-12-22T15:20:35.266Z,58.80
2022-12-22T15:23:11.734Z,58.98
2022-12-22T15:25:38.596Z,58.93
2022-12-22T15:28:05.283Z,58.86
2022-12-22T15:30:32.244Z,59.01
2022-12-22T15:32:58.981Z,59.13
2022-12-22T15:35:29.885Z,59.39
2022-12-22T15:37:56.659Z,59.29
2022-12-22T15:40:24.631Z,59.17
2022-12-22T15:42:51.655Z,59.17
2022-12-22T15:45:19.431Z,59.28
2022-12-22T15:47:49.513Z,59.47
2022-12-22T15:50:20.133Z,59.46
2022-12-22T15:52:55.026Z,59.74
2022-12-22T15:55:22.516Z,59.35
2022-12-22T15:57:51.318Z,59.14
2022-12-22T16:00:19.345Z,59.69
2022-12-22T16:02:46.380Z,59.27
2022-12-22T16:05:14.851Z,59.43
2022-12-22T16:07:42.251Z,59.41
2022-12-22T16:10:23.248Z,59.48
2022-12-22T16:12:55.498Z,59.22
2022-12-22T16:15:22.512Z,59.30
2022-12-22T16:17:51.727Z,58.95
2022-12-22T16:20:19.361Z,58.82
2022-12-22T16:22:46.173Z,58.83
2022-12-22T16:25:24.102Z,59.04
2022-12-22T16:27:51.168Z,58.87
2022-12-22T16:30:23.153Z,58.87
2022-12-22T16:32:50.413Z,58.69
2022-12-22T16:35:19.734Z,58.73
2022-12-22T16:37:48.734Z,59.06
2022-12-22T16:40:16.860Z,58.99
2022-12-22T16:45:50.262Z,58.84
2022-12-22T16:48:31.053Z,59.07
2022-12-22T16:50:57.944Z,58.60
2022-12-22T16:53:24.750Z,58.35
2022-12-22T16:55:51.606Z,58.44
2022-12-22T16:58:18.264Z,58.82
2022-12-22T17:00:45.530Z,58.26
2022-12-22T17:03:16.447Z,58.19
2022-12-22T17:05:54.310Z,58.14
2022-12-22T17:08:25.618Z,58.22
2022-12-22T17:10:53.760Z,58.40
2022-12-22T17:13:21.232Z,58.43
2022-12-22T17:15:48.398Z,58.31
2022-12-22T17:18:20.402Z,58.20
2022-12-22T17:20:50.405Z,58.12
2022-12-22T17:23:44.702Z,58.54
2022-12-22T17:26:14.639Z,58.14
2022-12-22T17:28:42.376Z,58.37
2022-12-22T17:31:14.845Z,58.17
2022-12-22T17:33:42.739Z,58.20
2022-12-22T17:36:20.434Z,58.23
2022-12-22T17:38:47.354Z,57.79
2022-12-22T17:41:15.968Z,58.27
2022-12-22T17:43:42.885Z,58.12
2022-12-22T17:46:15.091Z,57.65
2022-12-22T17:48:42.773Z,57.69
2022-12-22T17:51:15.479Z,57.68
2022-12-22T17:53:42.568Z,57.71
2022-12-22T17:56:21.266Z,58.14
2022-12-22T17:58:50.025Z,58.01
2022-12-22T18:01:28.793Z,57.91
2022-12-22T18:03:56.374Z,57.47
2022-12-22T18:06:26.687Z,57.48
2022-12-22T18:08:54.734Z,57.88
2022-12-22T18:11:22.218Z,57.39
2022-12-22T18:13:49.470Z,57.43
2022-12-22T18:16:18.274Z,57.91
2022-12-22T18:18:45.559Z,57.42
2022-12-22T18:21:23.378Z,57.57
2022-12-22T18:23:51.158Z,57.70
2022-12-22T18:26:27.846Z,57.65
2022-12-22T18:28:55.354Z,57.20
2022-12-22T18:31:22.751Z,56.92
2022-12-22T18:33:50.313Z,57.50
2022-12-22T18:36:22.548Z,57.25
2022-12-22T18:38:49.525Z,57.12
2022-12-22T18:41:27.617Z,57.24
2022-12-22T18:43:57.176Z,57.26
2022-12-22T18:46:26.804Z,57.06
2022-12-22T18:49:03.639Z,57.08
2022-12-22T18:51:33.261Z,57.06
2022-12-22T18:54:00.066Z,57.40
2022-12-22T18:56:26.932Z,57.40
2022-12-22T18:58:53.568Z,56.87
2022-12-22T19:01:24.645Z,57.38
2022-12-22T19:03:53.761Z,56.97
2022-12-22T19:06:21.726Z,57.08
2022-12-22T19:08:49.562Z,56.81
2022-12-22T19:11:19.523Z,57.31
2022-12-22T19:13:48.587Z,57.08
2022-12-22T19:16:18.523Z,57.20
2022-12-22T19:18:45.365Z,56.80
2022-12-22T19:21:13.775Z,56.89
2022-12-22T19:23:41.009Z,56.82
2022-12-22T19:26:18.470Z,57.06
2022-12-22T19:28:45.392Z,57.04
2022-12-22T19:31:21.153Z,56.76
2022-12-22T19:33:48.311Z,56.99
2022-12-22T19:36:18.413Z,57.01
2022-12-22T19:39:02.685Z,56.51
2022-12-22T19:42:00.360Z,56.52
2022-12-22T19:44:32.422Z,56.44
2022-12-22T19:47:00.259Z,56.54
2022-12-22T19:49:27.990Z,56.39
2022-12-22T19:51:58.225Z,56.57
2022-12-22T19:54:25.327Z,56.71
2022-12-22T19:56:55.665Z,56.45
2022-12-22T19:59:39.400Z,56.65
2022-12-22T20:02:24.021Z,56.52
2022-12-22T20:04:51.343Z,56.28
2022-12-22T20:07:20.025Z,56.48
2022-12-22T20:09:46.935Z,56.47
2022-12-22T20:12:30.090Z,56.93
2022-12-22T20:14:57.293Z,56.58
2022-12-22T20:17:23.988Z,56.75
2022-12-22T20:19:50.734Z,56.75
2022-12-22T20:22:19.360Z,56.49
2022-12-22T20:24:46.760Z,56.43
2022-12-22T20:27:33.367Z,56.81
2022-12-22T20:30:00.298Z,56.30
2022-12-22T20:32:28.239Z,56.71
2022-12-22T20:34:55.932Z,56.62
2022-12-22T20:37:22.664Z,56.76
2022-12-22T20:39:49.459Z,56.37
2022-12-22T20:42:20.851Z,56.46
2022-12-22T20:45:02.792Z,56.55
2022-12-22T20:47:33.507Z,56.36
2022-12-22T20:50:00.561Z,56.34
2022-12-22T20:52:27.605Z,56.30
2022-12-22T20:54:54.378Z,56.57
2022-12-22T20:57:21.731Z,56.11
2022-12-22T20:59:55.415Z,56.50
2022-12-22T21:02:24.771Z,56.59
2022-12-22T21:04:51.643Z,56.38
2022-12-22T21:07:18.394Z,56.23
2022-12-22T21:09:45.084Z,56.28
2022-12-22T21:12:11.923Z,56.21
2022-12-22T21:14:38.593Z,56.24
2022-12-22T21:17:11.055Z,56.16
2022-12-22T21:19:37.841Z,56.08
2022-12-22T21:22:04.510Z,56.53
2022-12-22T21:24:32.807Z,56.35
2022-12-22T21:26:59.629Z,56.22
2022-12-22T21:29:33.046Z,56.24
2022-12-22T21:31:59.823Z,56.24
2022-12-22T21:34:26.515Z,56.51
2022-12-22T21:36:59.061Z,56.18
2022-12-22T21:39:32.692Z,56.55
2022-12-22T21:42:04.523Z,56.13
2022-12-22T21:44:34.299Z,56.36
2022-12-22T21:47:01.407Z,56.63
2022-12-22T21:49:30.215Z,56.40
2022-12-22T21:51:56.961Z,56.25
2022-12-22T21:54:24.616Z,56.61
2022-12-22T21:56:52.580Z,56.16
2022-12-22T21:59:19.758Z,56.36
2022-12-22T22:01:46.687Z,56.39
2022-12-22T22:04:14.083Z,56.27
2022-12-22T22:06:41.068Z,56.58
2022-12-22T22:09:07.855Z,56.20
2022-12-22T22:11:54.798Z,56.63
2022-12-22T22:14:22.151Z,56.61
2022-12-22T22:16:49.292Z,56.38
2022-12-22T22:19:17.920Z,56.56
2022-12-22T22:21:45.663Z,56.54
2022-12-22T22:24:13.128Z,56.47
2022-12-22T22:26:39.966Z,56.43
2022-12-22T22:29:06.877Z,56.58
2022-12-22T22:31:34.041Z,56.42
2022-12-22T22:34:02.143Z,56.54
2022-12-22T22:36:28.880Z,56.73
2022-12-22T22:38:57.142Z,56.52
2022-12-22T22:41:25.425Z,56.32
2022-12-22T22:43:55.305Z,56.71
2022-12-22T22:46:22.104Z,56.36
2022-12-22T22:48:48.957Z,56.58
2022-12-22T22:51:15.700Z,56.66
2022-12-22T22:53:45.597Z,56.55
2022-12-22T22:56:12.424Z,56.61
2022-12-22T22:58:39.094Z,56.90
2022-12-22T23:01:07.647Z,56.82
2022-12-22T23:03:34.985Z,56.85
2022-12-22T23:06:07.751Z,56.87
2022-12-22T23:08:34.781Z,56.54
2022-12-22T23:11:02.186Z,56.65
2022-12-22T23:13:29.380Z,56.85
2022-12-22T23:15:57.419Z,56.72
2022-12-22T23:18:24.511Z,57.09
2022-12-22T23:20:51.479Z,57.03
2022-12-22T23:23:18.629Z,56.60
2022-12-22T23:25:46.664Z,57.10
2022-12-22T23:28:13.385Z,56.72
2022-12-22T23:30:40.920Z,56.76
2022-12-22T23:33:07.888Z,56.79
2022-12-22T23:35:41.705Z,57.12
2022-12-22T23:38:09.764Z,56.75
2022-12-22T23:40:54.712Z,56.73
2022-12-22T23:43:22.373Z,57.25
2022-12-22T23:45:49.165Z,57.22
2022-12-22T23:48:16.423Z,57.25
2022-12-22T23:50:46.407Z,56.85
2022-12-22T23:53:13.560Z,57.33
2022-12-22T23:55:47.629Z,57.16
2022-12-22T23:58:14.986Z,57.04
